Time;durP1;ratioP1;P1;durP2;ratioP2;P2;SDS_P1;SDS_P2;PMS_P1;PMS_P2;Temp;Humidity;BMP_temperature;BMP_pressure;BME280_temperature;BME280_humidity;BME280_pressure;Samples;Min_cycle;Max_cycle;Signal;HPM_P1;HPM_P2
2021/04/28 00:01:22;;;;;;;8.57;5.60;;;7.30;78.70;;;;;;8320125;28;20269;-74
2021/04/28 00:05:24;;;;;;;5.33;4.77;;;7.30;78.50;;;;;;8299794;28;20502;-74
2021/04/28 00:09:28;;;;;;;6.97;5.30;;;7.20;78.40;;;;;;8306424;28;20227;-74
2021/04/28 00:13:28;;;;;;;6.07;5.17;;;7.20;77.70;;;;;;8298619;28;20780;-75
2021/04/28 00:17:32;;;;;;;15.70;7.87;;;7.20;77.30;;;;;;8302177;28;20834;-75
2021/04/28 00:21:32;;;;;;;9.83;5.83;;;7.20;77.00;;;;;;8302753;28;20481;-74
2021/04/28 00:25:34;;;;;;;7.03;6.27;;;7.10;77.60;;;;;;8307497;28;21109;-74
2021/04/28 00:29:35;;;;;;;7.77;5.43;;;7.10;77.90;;;;;;8303668;28;20220;-74
2021/04/28 00:33:38;;;;;;;10.90;6.20;;;7.10;77.60;;;;;;8284173;28;20455;-74
2021/04/28 00:37:41;;;;;;;8.67;7.83;;;7.00;77.60;;;;;;8304481;28;20565;-75
2021/04/28 00:41:45;;;;;;;11.43;6.70;;;7.10;77.60;;;;;;8326373;28;20516;-74
2021/04/28 00:45:46;;;;;;;6.67;5.90;;;7.00;77.50;;;;;;8308449;28;20445;-74
2021/04/28 00:49:47;;;;;;;10.47;5.23;;;7.00;77.90;;;;;;8291322;28;20539;-74
2021/04/28 00:53:47;;;;;;;12.13;6.30;;;7.00;78.60;;;;;;8281117;28;20220;-74
2021/04/28 00:57:50;;;;;;;10.70;7.23;;;6.90;79.30;;;;;;8303611;28;21888;-74
2021/04/28 01:01:51;;;;;;;9.13;5.73;;;6.90;78.30;;;;;;8306513;28;20307;-73
2021/04/28 01:05:59;;;;;;;9.50;7.00;;;6.80;78.60;;;;;;8322617;28;20470;-73
2021/04/28 01:10:06;;;;;;;7.97;5.77;;;6.70;79.90;;;;;;8308770;28;20529;-74
2021/04/28 01:14:13;;;;;;;8.83;7.33;;;6.60;81.40;;;;;;8318931;28;20453;-73
2021/04/28 01:18:15;;;;;;;13.73;8.10;;;6.60;81.90;;;;;;8305619;28;20573;-73
2021/04/28 01:22:18;;;;;;;9.80;6.80;;;6.50;82.90;;;;;;8305933;28;20461;-73
2021/04/28 01:26:22;;;;;;;13.43;8.30;;;6.40;82.70;;;;;;8306720;28;20485;-73
2021/04/28 01:30:28;;;;;;;9.33;6.93;;;6.30;82.90;;;;;;8302406;28;20470;-74
2021/04/28 01:34:32;;;;;;;9.20;7.10;;;6.20;83.10;;;;;;8325189;28;21057;-73
2021/04/28 01:38:38;;;;;;;13.07;8.90;;;6.10;83.20;;;;;;8302473;28;21053;-73
2021/04/28 01:42:40;;;;;;;10.47;8.90;;;6.10;84.10;;;;;;8322472;28;20450;-73
2021/04/28 01:46:46;;;;;;;10.50;7.83;;;6.10;84.60;;;;;;8320622;28;20467;-73
2021/04/28 01:50:52;;;;;;;11.23;7.50;;;6.00;85.00;;;;;;8327140;28;20454;-73
2021/04/28 01:55:04;;;;;;;10.10;8.13;;;6.00;85.50;;;;;;8318447;28;20443;-73
2021/04/28 01:59:17;;;;;;;8.37;7.47;;;5.90;85.00;;;;;;8332086;28;21082;-73
2021/04/28 02:03:22;;;;;;;13.13;8.63;;;5.80;85.80;;;;;;8312960;28;20937;-72
2021/04/28 02:07:26;;;;;;;9.40;6.70;;;5.70;86.50;;;;;;8319065;28;20922;-73
2021/04/28 02:11:27;;;;;;;10.77;8.23;;;5.70;86.70;;;;;;8287165;28;21008;-73
2021/04/28 02:15:29;;;;;;;9.43;6.80;;;5.70;86.60;;;;;;8304573;28;20194;-73
2021/04/28 02:19:32;;;;;;;9.93;6.80;;;5.60;86.80;;;;;;8310010;28;20226;-74
2021/04/28 02:23:36;;;;;;;9.43;6.93;;;5.60;86.50;;;;;;8302891;28;20809;-71
2021/04/28 02:27:41;;;;;;;11.10;7.43;;;5.60;86.60;;;;;;8317999;28;20509;-74
2021/04/28 02:31:42;;;;;;;13.30;8.00;;;5.60;87.00;;;;;;8297661;28;20466;-73
2021/04/28 02:35:50;;;;;;;11.73;7.87;;;5.50;87.40;;;;;;8323126;28;20849;-73
2021/04/28 02:39:57;;;;;;;14.53;10.00;;;5.50;88.60;;;;;;8304461;28;20795;-73
2021/04/28 02:44:04;;;;;;;10.40;9.10;;;5.40;88.00;;;;;;8310383;28;20603;-73
2021/04/28 02:48:06;;;;;;;13.60;8.80;;;5.40;88.30;;;;;;8311307;28;20507;-73
2021/04/28 02:52:07;;;;;;;14.37;9.50;;;5.30;88.50;;;;;;8324944;28;20457;-73
2021/04/28 02:56:08;;;;;;;11.20;8.00;;;5.30;88.70;;;;;;8308109;28;20446;-74
2021/04/28 03:00:16;;;;;;;9.63;7.57;;;5.40;89.30;;;;;;8303338;28;20456;-73
2021/04/28 03:04:18;;;;;;;14.53;8.30;;;5.40;89.10;;;;;;8328591;28;20443;-73
2021/04/28 03:08:19;;;;;;;9.40;8.10;;;5.40;88.60;;;;;;8309294;28;20564;-73
2021/04/28 03:12:23;;;;;;;11.10;9.83;;;5.40;88.50;;;;;;8311341;28;20449;-73
2021/04/28 03:16:24;;;;;;;12.63;9.93;;;5.40;88.70;;;;;;8302171;28;20950;-74
2021/04/28 03:20:26;;;;;;;13.30;9.20;;;5.30;88.50;;;;;;8307766;28;20962;-73
2021/04/28 03:24:29;;;;;;;15.93;10.20;;;5.30;88.70;;;;;;8301051;28;20450;-73
2021/04/28 03:28:29;;;;;;;15.37;10.27;;;5.30;88.40;;;;;;8316212;28;21020;-73
2021/04/28 03:32:34;;;;;;;17.00;10.13;;;5.30;88.10;;;;;;8296900;28;20453;-74
2021/04/28 03:36:35;;;;;;;14.90;11.40;;;5.30;88.30;;;;;;8302138;28;20680;-73
2021/04/28 03:40:44;;;;;;;13.43;11.30;;;5.20;88.20;;;;;;8323803;28;21008;-73
2021/04/28 03:44:45;;;;;;;14.40;11.30;;;5.20;88.90;;;;;;8307638;28;20476;-73
2021/04/28 03:48:59;;;;;;;23.83;11.77;;;5.10;88.60;;;;;;8307421;28;20488;-73
2021/04/28 03:53:03;;;;;;;16.43;11.73;;;5.00;88.70;;;;;;8320179;28;21317;-73
2021/04/28 03:57:06;;;;;;;17.23;10.60;;;5.00;88.80;;;;;;8307355;28;20909;-73
2021/04/28 04:01:06;;;;;;;17.83;12.47;;;5.00;89.20;;;;;;8306629;28;20190;-73
2021/04/28 04:05:11;;;;;;;17.80;12.30;;;5.00;89.40;;;;;;8323037;28;21026;-73
2021/04/28 04:09:12;;;;;;;15.83;11.90;;;4.90;89.00;;;;;;8304028;28;20484;-73
2021/04/28 04:13:18;;;;;;;17.90;12.80;;;4.90;89.40;;;;;;8305118;28;20457;-73
2021/04/28 04:17:19;;;;;;;16.57;11.37;;;4.90;89.30;;;;;;8269551;28;20502;-73
2021/04/28 04:21:27;;;;;;;16.37;10.83;;;4.90;89.80;;;;;;8296604;28;20444;-73
2021/04/28 04:25:27;;;;;;;10.33;8.67;;;4.90;90.10;;;;;;8302017;28;20468;-73
2021/04/28 04:29:34;;;;;;;15.40;10.70;;;4.90;90.00;;;;;;8313089;28;20467;-74
2021/04/28 04:33:35;;;;;;;18.63;12.07;;;4.80;90.00;;;;;;8278419;28;20502;-73
2021/04/28 04:37:39;;;;;;;17.23;9.23;;;4.90;90.20;;;;;;8303406;28;20545;-73
2021/04/28 04:41:40;;;;;;;17.90;10.13;;;4.90;90.30;;;;;;8295457;28;20444;-74
2021/04/28 04:45:45;;;;;;;16.23;8.93;;;5.00;90.20;;;;;;8303653;28;20655;-72
2021/04/28 04:49:48;;;;;;;27.00;9.50;;;5.10;90.10;;;;;;8302535;28;20537;-74
2021/04/28 04:53:49;;;;;;;14.43;7.90;;;5.10;89.70;;;;;;8318858;28;20180;-76
2021/04/28 04:57:52;;;;;;;13.63;8.03;;;5.20;88.90;;;;;;8301119;28;20532;-74
2021/04/28 05:02:17;;;;;;;18.17;9.60;;;5.30;88.50;;;;;;8321335;28;20457;-74
2021/04/28 05:06:17;;;;;;;11.50;8.40;;;5.40;87.40;;;;;;8308047;28;20480;-74
2021/04/28 05:10:18;;;;;;;14.90;7.10;;;5.50;87.10;;;;;;8292225;28;20437;-75
2021/04/28 05:14:23;;;;;;;14.73;8.20;;;5.70;86.70;;;;;;8327888;28;20254;-74
2021/04/28 05:18:26;;;;;;;14.60;7.53;;;5.80;86.30;;;;;;8312846;28;20465;-74
2021/04/28 05:22:28;;;;;;;11.07;7.07;;;6.00;85.40;;;;;;8291967;28;20668;-74
2021/04/28 05:26:32;;;;;;;11.90;7.30;;;6.30;84.60;;;;;;8296221;28;676234;-73
2021/04/28 05:30:33;;;;;;;9.17;7.67;;;6.50;83.80;;;;;;8312492;28;20456;-75
2021/04/28 05:34:37;;;;;;;15.10;9.10;;;6.80;83.10;;;;;;8307159;28;20229;-75
2021/04/28 05:38:38;;;;;;;11.07;8.67;;;7.00;82.70;;;;;;8315023;28;20450;-73
2021/04/28 05:42:39;;;;;;;28.13;9.00;;;7.20;82.50;;;;;;8314876;28;20442;-74
2021/04/28 05:46:47;;;;;;;15.87;8.03;;;7.40;82.40;;;;;;8306673;28;20466;-74
2021/04/28 05:50:49;;;;;;;23.50;9.20;;;7.50;82.30;;;;;;8308531;28;20245;-74
2021/04/28 05:54:50;;;;;;;13.97;8.40;;;7.80;82.40;;;;;;8313753;28;20447;-73
2021/04/28 05:58:55;;;;;;;13.20;8.70;;;8.00;82.20;;;;;;8294357;28;20525;-73
2021/04/28 06:03:07;;;;;;;12.93;8.17;;;8.30;82.10;;;;;;8299159;28;20488;-74
2021/04/28 06:07:08;;;;;;;13.67;9.63;;;8.60;81.60;;;;;;8307845;28;20478;-73
2021/04/28 06:11:13;;;;;;;25.33;9.87;;;8.90;81.00;;;;;;8321672;28;20440;-73
2021/04/28 06:15:16;;;;;;;12.10;6.90;;;9.20;80.90;;;;;;8313322;28;20445;-75
2021/04/28 06:19:17;;;;;;;17.60;8.67;;;9.40;80.30;;;;;;8312697;28;21043;-74
2021/04/28 06:23:20;;;;;;;12.43;7.37;;;9.80;78.90;;;;;;8303296;28;20959;-75
2021/04/28 06:27:20;;;;;;;12.17;7.17;;;10.20;77.80;;;;;;8311674;28;20222;-74
2021/04/28 06:31:21;;;;;;;11.50;9.47;;;10.70;76.80;;;;;;8312431;28;20480;-75
2021/04/28 06:35:31;;;;;;;11.40;7.93;;;11.20;75.20;;;;;;8286200;28;20725;-74
2021/04/28 06:39:36;;;;;;;14.67;7.73;;;11.70;73.40;;;;;;8306555;28;20948;-73
2021/04/28 06:43:50;;;;;;;16.23;8.03;;;12.20;70.80;;;;;;8321111;28;20497;-75
2021/04/28 06:47:51;;;;;;;24.17;8.47;;;12.70;68.60;;;;;;8318425;28;20472;-75
2021/04/28 06:51:51;;;;;;;10.80;7.30;;;13.30;67.30;;;;;;8311389;28;20443;-74
2021/04/28 06:55:53;;;;;;;14.43;8.70;;;14.00;65.30;;;;;;8284429;28;20273;-74
2021/04/28 07:00:00;;;;;;;8.83;7.80;;;14.80;61.40;;;;;;8300137;28;20298;-74
2021/04/28 07:04:01;;;;;;;12.73;8.50;;;15.60;58.20;;;;;;8299497;28;20451;-74
2021/04/28 07:08:02;;;;;;;9.83;7.90;;;16.30;54.70;;;;;;8288873;28;20933;-73
2021/04/28 07:12:03;;;;;;;9.67;8.27;;;16.80;52.40;;;;;;8298370;28;20451;-73
2021/04/28 07:16:18;;;;;;;16.33;8.30;;;17.30;50.20;;;;;;8298235;28;20243;-73
2021/04/28 07:20:22;;;;;;;14.53;8.00;;;17.70;49.10;;;;;;8301298;28;20514;-74
2021/04/28 07:24:22;;;;;;;9.83;7.23;;;18.00;48.40;;;;;;8302249;28;20209;-73
2021/04/28 07:28:27;;;;;;;9.50;7.97;;;18.30;47.40;;;;;;8305121;28;20479;-74
2021/04/28 07:32:35;;;;;;;10.10;7.40;;;18.40;46.40;;;;;;8297982;28;20339;-77
2021/04/28 07:36:43;;;;;;;22.07;7.60;;;18.50;45.40;;;;;;8309147;28;20972;-74
2021/04/28 07:40:46;;;;;;;11.47;7.20;;;18.40;46.10;;;;;;8316882;28;20433;-74
2021/04/28 07:44:47;;;;;;;27.03;8.97;;;18.50;45.80;;;;;;8311752;28;22310;-73
2021/04/28 07:48:48;;;;;;;12.90;7.87;;;18.60;45.90;;;;;;8285100;28;21057;-76
2021/04/28 07:52:53;;;;;;;11.90;9.27;;;18.90;45.60;;;;;;8299849;28;20186;-74
2021/04/28 07:57:01;;;;;;;10.90;8.60;;;19.00;45.30;;;;;;8295262;28;20242;-75
2021/04/28 08:01:05;;;;;;;16.07;9.07;;;19.10;44.90;;;;;;8284975;28;20440;-74
2021/04/28 08:05:10;;;;;;;15.03;9.40;;;19.50;44.60;;;;;;8311511;28;20442;-75
2021/04/28 08:09:13;;;;;;;13.07;9.93;;;19.80;43.80;;;;;;8292882;28;20470;-74
2021/04/28 08:13:14;;;;;;;22.70;10.27;;;20.10;43.80;;;;;;8291745;28;20503;-74
2021/04/28 08:17:16;;;;;;;12.63;9.37;;;20.10;42.50;;;;;;8293032;28;20475;-75
2021/04/28 08:21:17;;;;;;;10.63;7.90;;;20.10;42.70;;;;;;8289506;28;20289;-73
2021/04/28 08:25:18;;;;;;;10.70;8.10;;;20.50;42.40;;;;;;8293575;28;20975;-73
2021/04/28 08:29:19;;;;;;;11.27;8.00;;;21.20;41.50;;;;;;8289539;28;20959;-74
2021/04/28 08:33:19;;;;;;;12.70;7.37;;;21.80;41.00;;;;;;8288118;28;20245;-75
2021/04/28 08:37:24;;;;;;;10.53;8.60;;;22.50;39.70;;;;;;8311410;28;20192;-74
2021/04/28 08:41:26;;;;;;;12.10;8.30;;;23.30;39.00;;;;;;8285236;28;20533;-73
2021/04/28 08:45:27;;;;;;;10.70;9.07;;;24.00;38.20;;;;;;8288001;28;20311;-73
2021/04/28 08:49:27;;;;;;;12.87;9.43;;;24.30;36.90;;;;;;8291694;28;20605;-74
2021/04/28 08:53:30;;;;;;;12.57;9.13;;;24.30;36.40;;;;;;8291270;28;20759;-73
2021/04/28 08:57:31;;;;;;;14.10;8.53;;;24.50;37.10;;;;;;8294476;28;20664;-76
2021/04/28 09:01:34;;;;;;;10.73;9.60;;;24.70;35.90;;;;;;8293541;28;21015;-74
2021/04/28 09:05:35;;;;;;;13.90;9.13;;;25.10;35.50;;;;;;8294868;28;20652;-74
2021/04/28 09:09:57;;;;;;;16.70;8.93;;;25.50;35.90;;;;;;8286684;28;21046;-75
2021/04/28 09:14:07;;;;;;;11.57;9.00;;;26.00;34.50;;;;;;8305689;28;20979;-75
2021/04/28 09:18:13;;;;;;;13.40;9.60;;;26.00;34.20;;;;;;8295890;28;20533;-75
2021/04/28 09:22:20;;;;;;;10.80;9.13;;;26.00;34.10;;;;;;8289291;28;20447;-76
2021/04/28 09:26:21;;;;;;;9.17;8.07;;;25.90;34.70;;;;;;8285377;28;20488;-76
2021/04/28 09:30:27;;;;;;;14.30;8.93;;;26.40;34.40;;;;;;8299537;28;20450;-75
2021/04/28 09:34:46;;;;;;;10.83;9.70;;;27.10;34.30;;;;;;8312815;28;20184;-75
2021/04/28 09:38:54;;;;;;;12.30;8.70;;;27.40;33.20;;;;;;8295655;28;20476;-76
2021/04/28 09:42:56;;;;;;;15.60;9.60;;;27.40;32.70;;;;;;8288374;28;20450;-75
2021/04/28 09:47:16;;;;;;;12.93;9.67;;;27.10;32.50;;;;;;8294098;28;20505;-76
2021/04/28 09:51:31;;;;;;;14.53;8.67;;;27.20;33.10;;;;;;8309119;28;20480;-75
2021/04/28 09:55:45;;;;;;;12.00;9.40;;;27.40;33.00;;;;;;8317029;28;20438;-75
2021/04/28 09:59:51;;;;;;;14.00;9.17;;;27.20;31.90;;;;;;8295106;28;21031;-75
2021/04/28 10:04:03;;;;;;;13.00;9.50;;;26.90;31.70;;;;;;8325036;28;20455;-75
2021/04/28 10:08:16;;;;;;;12.27;9.70;;;26.60;31.20;;;;;;8297437;28;20533;-75
2021/04/28 10:12:20;;;;;;;12.00;9.90;;;26.70;30.90;;;;;;8296402;28;20446;-74
2021/04/28 10:16:24;;;;;;;12.90;10.10;;;26.60;30.20;;;;;;8294721;28;20439;-76
2021/04/28 10:20:32;;;;;;;16.33;11.40;;;26.30;30.20;;;;;;8291978;28;20480;-74
2021/04/28 10:24:36;;;;;;;11.17;9.97;;;26.30;30.00;;;;;;8316729;28;20486;-75
2021/04/28 10:28:37;;;;;;;11.80;9.47;;;26.20;30.00;;;;;;8301766;28;20564;-75
2021/04/28 10:32:41;;;;;;;15.10;11.53;;;26.20;30.00;;;;;;8295999;28;21229;-74
2021/04/28 10:36:43;;;;;;;16.10;11.57;;;26.10;30.10;;;;;;8297103;28;21058;-74
2021/04/28 10:40:46;;;;;;;14.13;9.57;;;26.10;30.10;;;;;;8299361;28;20447;-75
2021/04/28 10:44:46;;;;;;;13.20;9.70;;;26.40;30.10;;;;;;8298310;28;20441;-74
2021/04/28 10:48:47;;;;;;;16.00;11.33;;;26.70;29.70;;;;;;8298452;28;20451;-75
2021/04/28 10:52:52;;;;;;;15.47;10.80;;;26.50;29.50;;;;;;8295671;28;20203;-75
2021/04/28 10:57:04;;;;;;;10.47;9.40;;;26.10;29.70;;;;;;8292680;28;20549;-75
2021/04/28 11:01:13;;;;;;;12.30;10.00;;;25.90;30.40;;;;;;8317227;28;20443;-75
2021/04/28 11:05:28;;;;;;;16.03;11.03;;;26.00;30.20;;;;;;8290001;28;20467;-74
2021/04/28 11:09:31;;;;;;;13.23;9.47;;;26.30;30.50;;;;;;8303869;28;20446;-74
2021/04/28 11:13:33;;;;;;;13.80;10.07;;;26.90;31.10;;;;;;8299033;28;21021;-76
2021/04/28 11:17:33;;;;;;;16.37;10.80;;;26.80;30.10;;;;;;8289393;28;20560;-74
2021/04/28 11:21:34;;;;;;;13.20;8.70;;;26.30;30.20;;;;;;8299366;28;20438;-74
2021/04/28 11:25:34;;;;;;;13.20;10.03;;;26.10;30.60;;;;;;8277759;28;20812;-75
2021/04/28 11:29:54;;;;;;;10.10;9.07;;;26.30;30.00;;;;;;8297059;28;20288;-75
2021/04/28 11:33:59;;;;;;;15.53;10.30;;;26.20;30.00;;;;;;8306253;28;20272;-74
2021/04/28 11:38:16;;;;;;;13.87;11.00;;;25.90;30.00;;;;;;8301976;28;20489;-75
2021/04/28 11:42:21;;;;;;;11.50;10.23;;;26.30;30.00;;;;;;8299652;28;20446;-74
2021/04/28 11:46:24;;;;;;;15.40;10.87;;;26.60;30.10;;;;;;8294057;28;20442;-74
2021/04/28 11:50:26;;;;;;;18.00;11.60;;;26.50;29.90;;;;;;8295013;28;20966;-75
2021/04/28 11:54:27;;;;;;;13.73;10.20;;;26.80;30.00;;;;;;8298230;28;20489;-77
2021/04/28 11:58:32;;;;;;;15.07;12.30;;;26.90;29.80;;;;;;8312682;28;20468;-77
2021/04/28 12:02:35;;;;;;;12.53;11.23;;;26.80;30.20;;;;;;8302532;28;20677;-76
2021/04/28 12:06:45;;;;;;;17.00;11.77;;;26.50;29.90;;;;;;8316277;28;20514;-77
2021/04/28 12:10:54;;;;;;;19.87;10.97;;;26.50;29.60;;;;;;8319117;28;20446;-77
2021/04/28 12:15:15;;;;;;;20.23;11.43;;;26.80;30.00;;;;;;8302598;28;20536;-77
2021/04/28 12:19:16;;;;;;;15.83;11.67;;;27.20;29.70;;;;;;8303094;28;20471;-76
2021/04/28 12:23:22;;;;;;;21.33;11.80;;;26.90;29.50;;;;;;8312394;28;20445;-75
2021/04/28 12:27:25;;;;;;;18.20;10.97;;;26.60;29.90;;;;;;8298083;28;20621;-76
2021/04/28 12:31:45;;;;;;;16.00;10.40;;;26.80;30.00;;;;;;8305617;28;20450;-76
2021/04/28 12:35:46;;;;;;;12.10;10.60;;;27.00;29.70;;;;;;8303299;28;20960;-76
2021/04/28 12:39:49;;;;;;;19.40;12.53;;;27.20;29.90;;;;;;8300811;28;20982;-77
2021/04/28 12:43:54;;;;;;;14.37;11.03;;;27.10;29.70;;;;;;8312257;28;20196;-76
2021/04/28 12:48:16;;;;;;;16.93;11.00;;;27.00;29.70;;;;;;8291480;28;20581;-74
2021/04/28 12:52:17;;;;;;;16.10;10.97;;;27.20;29.70;;;;;;8314648;28;20582;-74
2021/04/28 12:56:18;;;;;;;13.47;11.50;;;27.00;30.00;;;;;;8292619;28;20453;-74
2021/04/28 13:00:19;;;;;;;20.37;11.93;;;26.90;30.50;;;;;;8303268;28;20585;-74
2021/04/28 13:04:20;;;;;;;12.93;10.33;;;26.80;29.80;;;;;;8289897;28;20538;-75
2021/04/28 13:08:44;;;;;;;20.07;12.30;;;26.70;30.20;;;;;;8290740;28;20615;-73
2021/04/28 13:12:45;;;;;;;15.50;11.03;;;27.10;30.20;;;;;;8288934;28;20217;-73
2021/04/28 13:16:56;;;;;;;18.03;11.70;;;27.00;30.00;;;;;;8295634;28;20446;-74
2021/04/28 13:20:57;;;;;;;17.07;11.00;;;26.90;29.60;;;;;;8298091;28;20169;-74
2021/04/28 13:24:58;;;;;;;22.87;11.87;;;26.50;30.00;;;;;;8282917;28;20474;-74
2021/04/28 13:29:01;;;;;;;20.60;11.90;;;26.70;30.20;;;;;;8276578;28;20243;-73
2021/04/28 13:33:02;;;;;;;15.70;11.60;;;27.00;30.10;;;;;;8292426;28;20704;-73
2021/04/28 13:37:14;;;;;;;16.43;11.70;;;27.20;30.10;;;;;;8281904;28;21003;-74
2021/04/28 13:41:16;;;;;;;16.63;11.83;;;27.40;30.50;;;;;;8299495;28;20184;-74
2021/04/28 13:45:22;;;;;;;15.73;12.47;;;27.60;30.00;;;;;;8315074;28;21030;-75
2021/04/28 13:49:24;;;;;;;16.93;11.90;;;27.50;30.00;;;;;;8294238;28;20450;-73
2021/04/28 13:53:25;;;;;;;16.17;11.37;;;27.30;30.10;;;;;;8300697;28;20573;-75
2021/04/28 13:57:26;;;;;;;14.57;12.17;;;26.80;29.90;;;;;;8303148;28;21003;-76
2021/04/28 14:01:26;;;;;;;20.73;10.70;;;26.40;30.50;;;;;;8282406;28;21046;-75
2021/04/28 14:05:29;;;;;;;14.40;10.03;;;26.50;30.30;;;;;;8301026;28;20279;-76
2021/04/28 14:09:29;;;;;;;14.37;9.90;;;26.80;30.60;;;;;;8291302;28;20195;-75
2021/04/28 14:13:30;;;;;;;14.53;10.13;;;27.50;30.90;;;;;;8290980;28;20447;-74
2021/04/28 14:17:39;;;;;;;15.73;11.20;;;27.70;29.60;;;;;;8312704;28;20215;-74
2021/04/28 14:21:41;;;;;;;19.60;9.33;;;27.50;29.80;;;;;;8298983;28;20525;-74
2021/04/28 14:25:42;;;;;;;15.53;10.07;;;27.20;29.90;;;;;;8261240;28;20444;-77
2021/04/28 14:29:43;;;;;;;10.80;8.83;;;27.00;30.30;;;;;;8297867;28;20449;-76
2021/04/28 14:33:43;;;;;;;12.73;9.10;;;27.20;30.10;;;;;;8299726;28;20280;-76
2021/04/28 14:37:44;;;;;;;12.57;9.60;;;27.60;30.50;;;;;;8301339;28;20220;-72
2021/04/28 14:41:46;;;;;;;13.60;7.83;;;27.50;30.00;;;;;;8296744;28;20523;-77
2021/04/28 14:45:49;;;;;;;12.67;9.00;;;27.50;30.10;;;;;;8296430;28;20439;-78
2021/04/28 14:49:55;;;;;;;15.60;7.90;;;27.20;30.10;;;;;;8309560;28;20454;-78
2021/04/28 14:53:55;;;;;;;10.50;7.03;;;26.80;30.50;;;;;;8308413;28;21044;-78
2021/04/28 14:57:56;;;;;;;7.33;6.43;;;26.30;30.20;;;;;;8300459;28;20834;-79
2021/04/28 15:02:00;;;;;;;10.10;7.83;;;25.80;29.40;;;;;;8306113;28;20199;-78
2021/04/28 15:06:13;;;;;;;15.43;8.70;;;25.50;30.80;;;;;;8326986;28;20563;-77
2021/04/28 15:10:19;;;;;;;10.87;7.90;;;25.30;31.00;;;;;;8322413;28;20451;-78
2021/04/28 15:14:19;;;;;;;24.33;6.80;;;25.40;31.50;;;;;;8308385;28;20450;-78
2021/04/28 15:18:29;;;;;;;12.40;6.77;;;25.50;31.00;;;;;;8288662;28;20970;-78
2021/04/28 15:22:33;;;;;;;6.83;6.10;;;25.70;32.00;;;;;;8306053;28;20526;-77
2021/04/28 15:26:34;;;;;;;7.70;6.90;;;25.80;30.70;;;;;;8298059;28;20466;-77
2021/04/28 15:30:40;;;;;;;9.33;6.53;;;25.70;29.90;;;;;;8301358;28;20513;-77
2021/04/28 15:34:41;;;;;;;8.37;5.43;;;25.80;31.20;;;;;;8302516;28;20435;-78
2021/04/28 15:38:52;;;;;;;8.40;5.03;;;25.70;28.90;;;;;;8318958;28;20494;-76
2021/04/28 15:42:54;;;;;;;15.93;5.23;;;25.70;29.20;;;;;;8305500;28;20438;-77
2021/04/28 15:46:55;;;;;;;14.37;6.87;;;25.50;28.80;;;;;;8275735;28;20458;-74
2021/04/28 15:51:03;;;;;;;11.23;5.50;;;25.30;29.20;;;;;;8314597;28;20496;-72
2021/04/28 15:55:05;;;;;;;6.10;5.50;;;25.10;29.40;;;;;;8302730;28;20541;-77
2021/04/28 15:59:14;;;;;;;6.93;5.53;;;24.90;29.00;;;;;;8316122;28;20969;-74
2021/04/28 16:03:16;;;;;;;9.00;5.70;;;24.90;29.40;;;;;;8300788;28;20425;-79
2021/04/28 16:07:27;;;;;;;13.40;6.23;;;24.80;29.30;;;;;;8322213;28;20554;-77
2021/04/28 16:11:36;;;;;;;10.80;8.83;;;24.60;29.30;;;;;;8311766;28;20457;-79
2021/04/28 16:15:36;;;;;;;7.80;6.20;;;24.40;29.50;;;;;;8298540;28;20432;-78
2021/04/28 16:19:37;;;;;;;7.00;6.37;;;24.20;30.30;;;;;;8296893;28;20452;-78
2021/04/28 16:23:37;;;;;;;11.00;6.43;;;23.90;29.60;;;;;;8287766;28;20187;-78
2021/04/28 16:27:43;;;;;;;8.97;5.93;;;23.80;29.80;;;;;;8290793;28;20207;-77
2021/04/28 16:31:46;;;;;;;6.73;6.03;;;23.70;30.90;;;;;;8300199;28;20192;-78
2021/04/28 16:35:51;;;;;;;6.20;5.37;;;23.50;30.60;;;;;;8299548;28;20439;-77
2021/04/28 16:39:52;;;;;;;10.63;5.07;;;23.40;30.90;;;;;;8290124;28;20462;-78
2021/04/28 16:44:00;;;;;;;10.20;6.03;;;23.20;31.30;;;;;;8323764;28;20411;-77
2021/04/28 16:48:01;;;;;;;10.93;6.40;;;23.10;31.30;;;;;;8290199;28;20436;-76
2021/04/28 16:52:03;;;;;;;7.90;4.93;;;22.90;32.20;;;;;;8295099;28;20929;-76
2021/04/28 16:56:04;;;;;;;7.07;6.33;;;22.80;31.90;;;;;;8299841;28;20209;-77
2021/04/28 17:00:07;;;;;;;12.50;6.10;;;22.70;32.10;;;;;;8300248;28;20772;-77
2021/04/28 17:04:08;;;;;;;7.13;5.27;;;22.60;32.30;;;;;;8311372;28;20409;-77
2021/04/28 17:08:15;;;;;;;8.33;5.00;;;22.50;33.10;;;;;;8287851;28;20521;-77
2021/04/28 17:12:16;;;;;;;8.50;5.53;;;22.40;33.50;;;;;;8304530;28;20445;-78
2021/04/28 17:16:17;;;;;;;8.77;6.27;;;22.30;32.30;;;;;;8309323;28;20458;-79
2021/04/28 17:20:20;;;;;;;8.53;5.83;;;22.20;33.10;;;;;;8298567;28;20709;-78
2021/04/28 17:24:24;;;;;;;10.03;5.33;;;22.10;33.20;;;;;;8320667;28;20397;-77
2021/04/28 17:28:24;;;;;;;12.43;5.87;;;22.00;33.00;;;;;;8286584;28;20886;-79
2021/04/28 17:32:29;;;;;;;6.77;5.17;;;21.90;33.10;;;;;;8301952;28;20461;-77
2021/04/28 17:36:29;;;;;;;11.70;6.30;;;21.80;33.40;;;;;;8302246;28;20457;-73
2021/04/28 17:40:34;;;;;;;9.80;5.50;;;21.80;33.80;;;;;;8299812;28;20272;-75
2021/04/28 17:44:37;;;;;;;6.67;4.87;;;21.70;33.60;;;;;;8296423;28;20559;-76
2021/04/28 17:48:37;;;;;;;7.03;5.30;;;21.60;33.40;;;;;;8295928;28;20202;-76
2021/04/28 17:52:43;;;;;;;6.10;4.40;;;21.50;31.50;;;;;;8296476;28;21483;-75
2021/04/28 17:56:46;;;;;;;15.40;5.57;;;21.40;32.30;;;;;;8303038;28;20458;-76
2021/04/28 18:00:52;;;;;;;10.80;4.30;;;21.40;32.80;;;;;;8325173;28;20490;-76
2021/04/28 18:05:06;;;;;;;8.80;5.23;;;21.30;33.30;;;;;;8279714;28;20448;-75
2021/04/28 18:09:08;;;;;;;7.17;5.00;;;21.20;32.80;;;;;;8324194;28;20954;-74
2021/04/28 18:13:09;;;;;;;9.50;6.03;;;21.20;32.70;;;;;;8305073;28;20963;-76
2021/04/28 18:17:25;;;;;;;7.27;5.70;;;21.10;33.30;;;;;;8318536;28;20476;-76
2021/04/28 18:21:25;;;;;;;5.30;4.50;;;21.00;34.00;;;;;;8271557;28;20527;-77
2021/04/28 18:25:31;;;;;;;5.90;5.30;;;20.90;33.90;;;;;;8311900;28;20471;-76
2021/04/28 18:29:33;;;;;;;5.23;4.50;;;20.80;34.60;;;;;;8289425;28;20188;-75
2021/04/28 18:33:39;;;;;;;8.20;5.43;;;20.70;34.40;;;;;;8290981;28;20455;-76
2021/04/28 18:37:43;;;;;;;5.20;4.70;;;20.60;33.90;;;;;;8330809;28;20520;-76
2021/04/28 18:41:46;;;;;;;8.53;5.27;;;20.50;34.60;;;;;;8323568;28;20439;-76
2021/04/28 18:46:07;;;;;;;6.50;3.50;;;20.40;34.80;;;;;;8336529;28;20441;-76
2021/04/28 18:50:10;;;;;;;4.83;3.93;;;20.30;34.50;;;;;;8315974;28;20967;-75
2021/04/28 18:54:13;;;;;;;7.50;4.00;;;20.20;35.00;;;;;;8316623;28;20478;-75
2021/04/28 18:58:23;;;;;;;5.50;3.50;;;20.20;34.90;;;;;;8307077;28;20467;-74
2021/04/28 19:02:30;;;;;;;10.57;3.80;;;20.10;34.70;;;;;;8309381;28;20431;-75
2021/04/28 19:06:31;;;;;;;3.40;3.10;;;20.10;35.10;;;;;;8317300;28;20446;-76
2021/04/28 19:10:35;;;;;;;7.37;4.57;;;20.00;35.20;;;;;;8307894;28;20443;-77
2021/04/28 19:14:46;;;;;;;5.67;3.33;;;19.90;35.10;;;;;;8331363;28;20498;-77
2021/04/28 19:18:53;;;;;;;9.40;3.30;;;19.90;35.60;;;;;;8298006;28;20473;-76
2021/04/28 19:22:57;;;;;;;6.03;2.90;;;19.80;35.80;;;;;;8317183;28;20473;-75
2021/04/28 19:26:58;;;;;;;5.53;3.13;;;19.80;35.80;;;;;;8314948;28;20490;-76
2021/04/28 19:31:00;;;;;;;3.13;2.47;;;19.70;36.00;;;;;;8316841;28;20449;-75
2021/04/28 19:35:02;;;;;;;2.90;2.70;;;19.60;35.80;;;;;;8308431;28;20439;-75
2021/04/28 19:39:04;;;;;;;7.33;4.00;;;19.50;36.00;;;;;;8303200;28;20492;-76
2021/04/28 19:43:05;;;;;;;4.00;2.83;;;19.50;36.40;;;;;;8325042;28;20442;-76
2021/04/28 19:47:09;;;;;;;3.40;2.87;;;19.40;36.20;;;;;;8318110;28;20535;-75
2021/04/28 19:51:17;;;;;;;3.13;2.77;;;19.30;35.70;;;;;;8329713;28;20445;-74
2021/04/28 19:55:18;;;;;;;4.93;2.73;;;19.30;35.90;;;;;;8278257;28;20454;-74
2021/04/28 19:59:19;;;;;;;2.33;2.13;;;19.30;36.00;;;;;;8303317;28;20489;-75
2021/04/28 20:03:23;;;;;;;4.47;3.03;;;19.30;36.00;;;;;;8298856;28;20531;-76
2021/04/28 20:07:24;;;;;;;5.63;3.00;;;19.20;36.40;;;;;;8310597;28;20278;-74
2021/04/28 20:11:30;;;;;;;3.80;2.30;;;19.10;37.00;;;;;;8309246;28;20465;-75
2021/04/28 20:15:33;;;;;;;6.37;2.87;;;19.10;37.20;;;;;;8299678;28;20446;-75
2021/04/28 20:19:34;;;;;;;5.87;3.80;;;19.00;37.70;;;;;;8300096;28;20473;-75
2021/04/28 20:23:35;;;;;;;5.10;2.60;;;19.00;37.80;;;;;;8312742;28;20453;-77
2021/04/28 20:27:39;;;;;;;4.40;3.17;;;18.90;37.80;;;;;;8327360;28;20480;-76
2021/04/28 20:31:41;;;;;;;3.53;3.23;;;18.80;38.50;;;;;;8321879;28;20469;-76
2021/04/28 20:35:50;;;;;;;4.47;3.20;;;18.80;38.70;;;;;;8311820;28;20253;-77
2021/04/28 20:39:53;;;;;;;5.33;3.17;;;18.70;38.60;;;;;;8307089;28;20464;-75
2021/04/28 20:44:01;;;;;;;8.03;2.90;;;18.60;38.80;;;;;;8315815;28;20440;-77
2021/04/28 20:48:02;;;;;;;2.20;2.00;;;18.60;39.20;;;;;;8299216;28;20449;-75
2021/04/28 20:52:03;;;;;;;7.60;3.20;;;18.50;39.20;;;;;;8296804;28;20478;-74
2021/04/28 20:56:06;;;;;;;3.47;2.90;;;18.40;39.50;;;;;;8286596;28;20267;-75
2021/04/28 21:00:10;;;;;;;4.20;2.60;;;18.40;39.60;;;;;;8315567;28;20474;-74